createdAt,value
2016-06-05T00:00:14.383Z,22.42
2016-06-05T00:01:14.386Z,22.43
2016-06-05T00:02:14.389Z,22.39
2016-06-05T00:03:14.360Z,22.4
2016-06-05T00:04:14.206Z,22.47
2016-06-05T00:05:14.350Z,22.45
2016-06-05T00:06:14.337Z,22.48
2016-06-05T00:07:14.339Z,22.5
2016-06-05T00:08:14.341Z,22.45
2016-06-05T00:09:14.299Z,22.42
2016-06-05T00:10:14.301Z,22.32
2016-06-05T00:11:14.304Z,22.35
2016-06-05T00:12:14.353Z,22.4
2016-06-05T00:13:14.481Z,22.35
2016-06-05T00:14:14.280Z,22.35
2016-06-05T00:15:14.095Z,22.32
2016-06-05T00:16:14.238Z,22.27
2016-06-05T00:17:14.226Z,22.33
2016-06-05T00:18:14.244Z,22.32
2016-06-05T00:19:14.201Z,22.29
2016-06-05T00:20:14.265Z,22.3
2016-06-05T00:21:14.190Z,22.33
2016-06-05T00:22:14.021Z,22.35
2016-06-05T00:23:14.179Z,22.39
2016-06-05T00:24:14.182Z,22.37
2016-06-05T00:25:14.154Z,22.4
2016-06-05T00:26:14.157Z,22.25
2016-06-05T00:27:14.143Z,22.33
2016-06-05T00:28:14.131Z,22.35
2016-06-05T00:29:14.117Z,22.27
2016-06-05T00:30:14.105Z,22.22
2016-06-05T00:31:14.092Z,22.18
2016-06-05T00:32:14.094Z,22.18
2016-06-05T00:33:14.081Z,22.12
2016-06-05T00:34:14.084Z,22.2
2016-06-05T00:35:14.055Z,22.1
2016-06-05T00:36:14.074Z,22.1
2016-06-05T00:37:14.045Z,22.12
2016-06-05T00:38:14.033Z,22.1
2016-06-05T00:39:14.019Z,22.08
2016-06-05T00:40:14.038Z,22.11
2016-06-05T00:41:13.994Z,22.05
2016-06-05T00:42:13.997Z,22.1
2016-06-05T00:43:14.436Z,22.1
2016-06-05T00:44:13.985Z,22.1
2016-06-05T00:45:13.974Z,22.15
2016-06-05T00:46:13.804Z,22.1
2016-06-05T00:47:13.962Z,22.08
2016-06-05T00:48:13.934Z,22.15
2016-06-05T00:49:13.765Z,22.05
2016-06-05T00:50:13.909Z,22.03
2016-06-05T00:51:13.912Z,22.03
2016-06-05T00:52:13.898Z,21.97
2016-06-05T00:53:13.901Z,22.03
2016-06-05T00:54:13.888Z,22.11
2016-06-05T00:55:13.890Z,22.08
2016-06-05T00:56:13.846Z,22.11
2016-06-05T00:57:13.912Z,22.06
2016-06-05T00:58:14.071Z,22.06
2016-06-05T00:59:13.870Z,22.08
2016-06-05T01:00:13.811Z,21.92
2016-06-05T01:01:13.814Z,22.03
2016-06-05T01:02:13.800Z,21.92
2016-06-05T01:03:13.646Z,21.95
2016-06-05T01:04:13.806Z,21.93
2016-06-05T01:05:13.824Z,21.88
2016-06-05T01:06:13.780Z,21.96
2016-06-05T01:07:13.798Z,21.95
2016-06-05T01:08:13.738Z,21.92
2016-06-05T01:09:13.741Z,21.92
2016-06-05T01:10:13.728Z,21.81
2016-06-05T01:11:13.778Z,21.83
2016-06-05T01:12:13.702Z,21.84
2016-06-05T01:13:14.330Z,21.88
2016-06-05T01:14:13.676Z,21.86
2016-06-05T01:15:13.522Z,21.83
2016-06-05T01:16:13.682Z,21.76
2016-06-05T01:17:13.684Z,21.8
2016-06-05T01:18:13.655Z,21.81
2016-06-05T01:19:13.643Z,21.71
2016-06-05T01:20:13.630Z,21.74
2016-06-05T01:21:13.664Z,21.81
2016-06-05T01:22:13.620Z,21.58
2016-06-05T01:23:13.654Z,21.65
2016-06-05T01:24:13.593Z,21.74
2016-06-05T01:25:13.581Z,21.61
2016-06-05T01:26:13.568Z,21.59
2016-06-05T01:27:13.554Z,21.77
2016-06-05T01:28:13.682Z,21.58
2016-06-05T01:29:13.545Z,21.68
2016-06-05T01:30:13.531Z,21.68
2016-06-05T01:31:13.535Z,21.64
2016-06-05T01:32:13.490Z,21.58
2016-06-05T01:33:13.508Z,21.59
2016-06-05T01:34:13.480Z,21.62
2016-06-05T01:35:13.467Z,21.59
2016-06-05T01:36:13.470Z,21.59
2016-06-05T01:37:13.473Z,21.59
2016-06-05T01:38:13.475Z,21.52
2016-06-05T01:39:13.446Z,21.54
2016-06-05T01:40:13.434Z,21.61
2016-06-05T01:41:13.421Z,21.5
2016-06-05T01:42:13.408Z,21.37
2016-06-05T01:43:13.411Z,21.4
2016-06-05T01:44:13.398Z,21.41
2016-06-05T01:45:13.385Z,21.37
2016-06-05T01:46:13.418Z,21.4
2016-06-05T01:47:13.374Z,21.44
2016-06-05T01:48:13.346Z,21.34
2016-06-05T01:49:13.192Z,21.44
2016-06-05T01:50:13.399Z,21.39
2016-06-05T01:51:13.307Z,21.41
2016-06-05T01:52:13.310Z,21.41
2016-06-05T01:53:13.296Z,21.39
2016-06-05T01:54:13.315Z,21.37
2016-06-05T01:55:13.287Z,21.26
2016-06-05T01:56:13.274Z,21.34
2016-06-05T01:57:13.276Z,21.25
2016-06-05T01:58:13.887Z,21.28
2016-06-05T01:59:13.250Z,21.31
2016-06-05T02:00:13.269Z,21.31
2016-06-05T02:01:13.225Z,21.24
2016-06-05T02:02:13.212Z,21.22
2016-06-05T02:03:13.199Z,21.25
2016-06-05T02:04:13.201Z,21.26
2016-06-05T02:05:13.204Z,21.26
2016-06-05T02:06:13.222Z,21.26
2016-06-05T02:07:13.147Z,21.21
2016-06-05T02:08:13.134Z,21.24
2016-06-05T02:09:13.152Z,21.25
2016-06-05T02:10:13.139Z,21.31
2016-06-05T02:11:13.127Z,21.25
2016-06-05T02:12:12.942Z,21.26
2016-06-05T02:13:13.460Z,21.25
2016-06-05T02:14:13.103Z,21.22
2016-06-05T02:15:12.918Z,21.17
2016-06-05T02:16:13.077Z,21.06
2016-06-05T02:17:13.049Z,21.15
2016-06-05T02:18:13.051Z,21.06
2016-06-05T02:19:13.038Z,21.07
2016-06-05T02:20:13.041Z,21.1
2016-06-05T02:21:13.013Z,21.04
2016-06-05T02:22:13.031Z,21.07
2016-06-05T02:23:12.987Z,21.07
2016-06-05T02:24:12.989Z,21.09
2016-06-05T02:25:12.976Z,21.06
2016-06-05T02:26:12.980Z,21.03
2016-06-05T02:27:12.966Z,21.1
2016-06-05T02:28:12.875Z,21.04
2016-06-05T02:29:12.940Z,21.11
2016-06-05T02:30:12.943Z,21.11
2016-06-05T02:31:12.915Z,21.11
2016-06-05T02:32:12.917Z,21.1
2016-06-05T02:33:12.889Z,21.09
2016-06-05T02:34:12.892Z,20.97
2016-06-05T02:35:12.878Z,21.07
2016-06-05T02:36:12.881Z,21.03
2016-06-05T02:37:12.868Z,21.06
2016-06-05T02:38:12.856Z,20.91
2016-06-05T02:39:12.827Z,20.97
2016-06-05T02:40:12.813Z,21.03
2016-06-05T02:41:12.864Z,21.04
2016-06-05T02:42:12.647Z,21.04
2016-06-05T02:43:13.196Z,20.97
2016-06-05T02:44:12.794Z,20.94
2016-06-05T02:45:12.843Z,20.89
2016-06-05T02:46:12.752Z,20.91
2016-06-05T02:47:13.005Z,20.89
2016-06-05T02:48:12.742Z,20.89
2016-06-05T02:49:12.729Z,20.89
2016-06-05T02:50:12.716Z,20.81
2016-06-05T02:51:12.703Z,20.92
2016-06-05T02:52:12.550Z,20.88
2016-06-05T02:53:12.740Z,20.81
2016-06-05T02:54:12.663Z,20.92
2016-06-05T02:55:12.730Z,20.89
2016-06-05T02:56:12.638Z,20.78
2016-06-05T02:57:12.671Z,20.82
2016-06-05T02:58:12.894Z,20.81
2016-06-05T02:59:12.677Z,20.84
2016-06-05T03:00:12.617Z,20.78
2016-06-05T03:01:12.604Z,20.76
2016-06-05T03:02:12.607Z,20.72
2016-06-05T03:03:12.642Z,20.74
2016-06-05T03:04:12.565Z,20.73
2016-06-05T03:05:12.568Z,20.72
2016-06-05T03:06:12.555Z,20.76
2016-06-05T03:07:12.558Z,20.76
2016-06-05T03:08:12.530Z,20.76
2016-06-05T03:09:12.532Z,20.64
2016-06-05T03:10:12.504Z,20.72
2016-06-05T03:11:12.507Z,20.66
2016-06-05T03:12:12.494Z,20.69
2016-06-05T03:13:12.497Z,20.69
2016-06-05T03:14:12.467Z,20.67
2016-06-05T03:15:12.455Z,20.66
2016-06-05T03:16:12.442Z,20.72
2016-06-05T03:17:12.429Z,20.57
2016-06-05T03:18:12.416Z,20.63
2016-06-05T03:19:12.402Z,20.57
2016-06-05T03:20:12.405Z,20.58
2016-06-05T03:21:12.377Z,20.6
2016-06-05T03:22:12.395Z,20.51
2016-06-05T03:23:12.382Z,20.62
2016-06-05T03:24:12.354Z,20.62
2016-06-05T03:25:12.357Z,20.49
2016-06-05T03:26:12.344Z,20.63
2016-06-05T03:27:12.331Z,20.69
2016-06-05T03:28:12.349Z,20.51
2016-06-05T03:29:12.305Z,20.55
2016-06-05T03:30:12.307Z,20.54
2016-06-05T03:31:12.295Z,20.67
2016-06-05T03:32:12.282Z,20.69
2016-06-05T03:33:12.268Z,20.6
2016-06-05T03:34:12.271Z,20.64
2016-06-05T03:35:12.259Z,20.64
2016-06-05T03:36:12.277Z,20.67
2016-06-05T03:37:12.264Z,20.54
2016-06-05T03:38:12.267Z,20.54
2016-06-05T03:39:12.207Z,20.54
2016-06-05T03:40:12.194Z,20.6
2016-06-05T03:41:12.181Z,20.52
2016-06-05T03:42:12.214Z,20.49
2016-06-05T03:43:12.546Z,20.55
2016-06-05T03:44:12.205Z,20.57
2016-06-05T03:45:12.144Z,20.57
2016-06-05T03:46:12.163Z,20.57
2016-06-05T03:47:12.119Z,20.57
2016-06-05T03:48:12.153Z,20.54
2016-06-05T03:49:12.109Z,20.7
2016-06-05T03:50:12.096Z,20.72
2016-06-05T03:51:12.083Z,20.66
2016-06-05T03:52:12.086Z,20.67
2016-06-05T03:53:12.057Z,20.62
2016-06-05T03:54:12.044Z,20.74
2016-06-05T03:55:12.016Z,20.72
2016-06-05T03:56:12.018Z,20.73
2016-06-05T03:57:12.021Z,20.73
2016-06-05T03:58:12.070Z,20.69
2016-06-05T03:59:11.995Z,20.64
2016-06-05T04:00:11.982Z,20.66
2016-06-05T04:01:11.969Z,20.58
2016-06-05T04:02:11.972Z,20.58
2016-06-05T04:03:11.943Z,20.64
2016-06-05T04:04:11.931Z,20.64
2016-06-05T04:05:11.934Z,20.66
2016-06-05T04:06:11.936Z,20.63
2016-06-05T04:07:11.923Z,20.57
2016-06-05T04:08:11.909Z,20.55
2016-06-05T04:09:11.881Z,20.6
2016-06-05T04:10:11.884Z,20.64
2016-06-05T04:11:11.856Z,20.64
2016-06-05T04:12:11.858Z,20.57
2016-06-05T04:13:12.314Z,20.57
2016-06-05T04:14:11.833Z,20.69
2016-06-05T04:15:11.836Z,20.67
2016-06-05T04:16:11.791Z,20.69
2016-06-05T04:17:11.801Z,20.63
2016-06-05T04:18:11.815Z,20.67
2016-06-05T04:19:11.829Z,20.62
2016-06-05T04:20:11.860Z,20.66
2016-06-05T04:21:11.875Z,20.67
2016-06-05T04:22:11.885Z,20.72
2016-06-05T04:23:11.882Z,20.63
2016-06-05T04:24:11.879Z,20.54
2016-06-05T04:25:11.736Z,20.62
2016-06-05T04:26:11.905Z,20.69
2016-06-05T04:27:11.728Z,20.6
2016-06-05T04:28:11.876Z,20.67
2016-06-05T04:29:12.382Z,20.67
2016-06-05T04:30:11.873Z,20.74
2016-06-05T04:31:11.864Z,20.79
2016-06-05T04:32:11.854Z,20.81
2016-06-05T04:33:11.842Z,20.81
2016-06-05T04:34:11.831Z,20.89
2016-06-05T04:35:11.865Z,21.02
2016-06-05T04:36:11.807Z,21.02
2016-06-05T04:37:11.810Z,21.02
2016-06-05T04:38:11.798Z,21.02
2016-06-05T04:39:11.769Z,21.07
2016-06-05T04:40:11.788Z,21.07
2016-06-05T04:41:11.760Z,21.04
2016-06-05T04:42:11.748Z,21.02
2016-06-05T04:43:11.736Z,21.04
2016-06-05T04:44:11.739Z,20.99
2016-06-05T04:45:11.725Z,21.09
2016-06-05T04:46:11.714Z,21.09
2016-06-05T04:47:11.716Z,21.13
2016-06-05T04:48:11.687Z,21.15
2016-06-05T04:49:11.722Z,21.11
2016-06-05T04:50:11.521Z,21.22
2016-06-05T04:51:11.695Z,21.18
2016-06-05T04:52:11.636Z,21.24
2016-06-05T04:53:11.639Z,21.28
2016-06-05T04:54:11.625Z,21.29
2016-06-05T04:55:11.613Z,21.26
2016-06-05T04:56:11.599Z,21.34
2016-06-05T04:57:11.603Z,21.31
2016-06-05T04:58:11.777Z,21.31
2016-06-05T04:59:11.577Z,21.41
2016-06-05T05:00:11.563Z,21.4
2016-06-05T05:01:11.551Z,21.39
2016-06-05T05:02:11.538Z,21.44
2016-06-05T05:03:11.524Z,21.44
2016-06-05T05:04:11.527Z,21.36
2016-06-05T05:05:11.530Z,21.37
2016-06-05T05:06:11.502Z,21.44
2016-06-05T05:07:11.488Z,21.43
2016-06-05T05:08:11.491Z,21.52
2016-06-05T05:09:11.479Z,21.44
2016-06-05T05:10:11.466Z,21.47
2016-06-05T05:11:11.453Z,21.56
2016-06-05T05:12:11.439Z,21.56
2016-06-05T05:13:11.537Z,21.54
2016-06-05T05:14:11.429Z,21.52
2016-06-05T05:15:11.401Z,21.58
2016-06-05T05:16:11.403Z,21.68
2016-06-05T05:17:11.390Z,21.68
2016-06-05T05:18:11.378Z,21.66
2016-06-05T05:19:11.364Z,21.65
2016-06-05T05:20:11.352Z,21.61
2016-06-05T05:21:11.214Z,21.79
2016-06-05T05:22:11.436Z,21.77
2016-06-05T05:23:11.329Z,21.8
2016-06-05T05:24:11.316Z,21.81
2016-06-05T05:25:11.334Z,21.88
2016-06-05T05:26:11.322Z,21.86
2016-06-05T05:27:11.308Z,22.02
2016-06-05T05:28:11.358Z,21.97
2016-06-05T05:29:11.282Z,21.97
2016-06-05T05:30:11.285Z,21.96
2016-06-05T05:31:11.257Z,22.03
2016-06-05T05:32:11.244Z,21.97
2016-06-05T05:33:11.246Z,22.03
2016-06-05T05:34:11.327Z,22.12
2016-06-05T05:35:11.220Z,22
2016-06-05T05:36:11.051Z,22.12
2016-06-05T05:37:11.194Z,22.1
2016-06-05T05:38:11.197Z,22.08
2016-06-05T05:39:11.184Z,22.15
2016-06-05T05:40:11.234Z,22.15
2016-06-05T05:41:11.159Z,22.2
2016-06-05T05:42:11.162Z,22.1
2016-06-05T05:43:11.867Z,22.18
2016-06-05T05:44:11.166Z,22.17
2016-06-05T05:45:11.123Z,22.27
2016-06-05T05:46:11.109Z,22.24
2016-06-05T05:47:11.096Z,22.21
2016-06-05T05:48:11.083Z,22.29
2016-06-05T05:49:11.070Z,22.33
2016-06-05T05:50:11.073Z,22.36
2016-06-05T05:51:11.061Z,22.32
2016-06-05T05:52:11.063Z,22.42
2016-06-05T05:53:11.034Z,22.36
2016-06-05T05:54:11.037Z,22.43
2016-06-05T05:55:11.024Z,22.47
2016-06-05T05:56:11.027Z,22.39
2016-06-05T05:57:11.014Z,22.42
2016-06-05T05:58:11.001Z,22.42
2016-06-05T05:59:10.972Z,22.45
2016-06-05T06:00:10.835Z,22.51
2016-06-05T06:01:10.978Z,22.61
2016-06-05T06:02:10.965Z,22.7
2016-06-05T06:03:10.952Z,22.69
2016-06-05T06:04:10.939Z,22.67
2016-06-05T06:05:10.941Z,22.79
2016-06-05T06:06:10.913Z,22.91
2016-06-05T06:07:10.899Z,22.95
2016-06-05T06:08:10.902Z,22.91
2016-06-05T06:09:10.890Z,23.03
2016-06-05T06:10:10.736Z,22.99
2016-06-05T06:11:10.895Z,23.12
2016-06-05T06:12:10.851Z,23.22
2016-06-05T06:13:11.510Z,23.19
2016-06-05T06:14:10.840Z,23.21
2016-06-05T06:15:10.828Z,23.16
2016-06-05T06:16:10.831Z,23.21
2016-06-05T06:17:10.817Z,23.22
2016-06-05T06:18:10.820Z,23.35
2016-06-05T06:19:10.839Z,23.27
2016-06-05T06:20:10.810Z,23.29
2016-06-05T06:21:10.844Z,23.38
2016-06-05T06:22:10.784Z,23.33
2016-06-05T06:23:10.614Z,23.4
2016-06-05T06:24:10.775Z,23.5
2016-06-05T06:25:10.792Z,23.54
2016-06-05T06:26:10.747Z,23.57
2016-06-05T06:27:10.797Z,23.62
2016-06-05T06:28:10.581Z,23.62
2016-06-05T06:29:10.568Z,23.69
2016-06-05T06:30:10.696Z,23.8
2016-06-05T06:31:10.714Z,23.69
2016-06-05T06:32:10.702Z,23.75
2016-06-05T06:33:10.673Z,23.82
2016-06-05T06:34:10.691Z,23.91
2016-06-05T06:35:10.663Z,23.87
2016-06-05T06:36:10.665Z,23.8
2016-06-05T06:37:10.699Z,23.88
2016-06-05T06:38:10.655Z,23.82
2016-06-05T06:39:10.643Z,23.87
2016-06-05T06:40:10.645Z,23.96
2016-06-05T06:41:10.616Z,24.02
2016-06-05T06:42:10.619Z,23.95
2016-06-05T06:43:10.606Z,23.92
2016-06-05T06:44:10.609Z,24.14
2016-06-05T06:45:10.440Z,24.17
2016-06-05T06:46:10.583Z,24.25
2016-06-05T06:47:10.571Z,24.21
2016-06-05T06:48:10.557Z,24.34
2016-06-05T06:49:10.559Z,24.37
2016-06-05T06:50:10.375Z,24.19
2016-06-05T06:51:10.534Z,24.24
2016-06-05T06:52:10.521Z,24.21
2016-06-05T06:53:10.539Z,24.29
2016-06-05T06:54:10.511Z,24.4
2016-06-05T06:55:10.497Z,24.37
2016-06-05T06:56:10.485Z,24.54
2016-06-05T06:57:10.488Z,24.54
2016-06-05T06:58:10.428Z,24.58
2016-06-05T06:59:10.461Z,24.58
2016-06-05T07:00:10.464Z,24.59
2016-06-05T07:01:10.467Z,24.62
2016-06-05T07:02:10.532Z,24.61
2016-06-05T07:03:10.269Z,24.66
2016-06-05T07:04:10.491Z,24.74
2016-06-05T07:05:10.400Z,24.82
2016-06-05T07:06:10.419Z,24.82
2016-06-05T07:07:10.421Z,24.85
2016-06-05T07:08:10.408Z,24.96
2016-06-05T07:09:10.411Z,24.9
2016-06-05T07:10:10.366Z,24.81
2016-06-05T07:11:10.384Z,24.9
2016-06-05T07:12:10.371Z,24.9
2016-06-05T07:13:10.563Z,24.87
2016-06-05T07:14:10.362Z,25
2016-06-05T07:15:10.365Z,25.05
2016-06-05T07:16:10.351Z,25.03
2016-06-05T07:17:10.181Z,25.07
2016-06-05T07:18:10.529Z,25.07
2016-06-05T07:19:10.344Z,25.08
2016-06-05T07:20:10.331Z,25.08
2016-06-05T07:21:10.302Z,25.15
2016-06-05T07:22:10.305Z,25.11
2016-06-05T07:23:10.292Z,25.11
2016-06-05T07:24:10.279Z,25.29
2016-06-05T07:25:10.281Z,25.12
2016-06-05T07:26:10.269Z,25.11
2016-06-05T07:27:10.256Z,25.22
2016-06-05T07:28:10.306Z,25.25
2016-06-05T07:29:10.230Z,25.39
2016-06-05T07:30:10.217Z,25.39
2016-06-05T07:31:10.236Z,25.36
2016-06-05T07:32:10.238Z,25.42
2016-06-05T07:33:10.225Z,25.49
2016-06-05T07:34:10.213Z,25.42
2016-06-05T07:35:10.199Z,25.45
2016-06-05T07:36:10.202Z,25.55
2016-06-05T07:37:10.188Z,25.51
2016-06-05T07:38:10.192Z,25.56
2016-06-05T07:39:10.241Z,25.62
2016-06-05T07:40:10.166Z,25.48
2016-06-05T07:41:10.168Z,25.4
2016-06-05T07:42:10.155Z,25.47
2016-06-05T07:43:10.158Z,25.48
2016-06-05T07:44:10.020Z,25.66
2016-06-05T07:45:10.148Z,25.7
2016-06-05T07:46:10.135Z,25.71
2016-06-05T07:47:10.169Z,25.82
2016-06-05T07:48:10.109Z,25.73
2016-06-05T07:49:09.940Z,25.47
2016-06-05T07:50:10.099Z,25.44
2016-06-05T07:51:10.148Z,25.52
2016-06-05T07:52:10.073Z,25.59
2016-06-05T07:53:10.076Z,25.71
2016-06-05T07:54:10.078Z,25.84
2016-06-05T07:55:10.065Z,25.79
2016-06-05T07:56:10.053Z,25.94
2016-06-05T07:57:10.117Z,25.85
2016-06-05T07:58:10.668Z,25.92
2016-06-05T07:59:10.061Z,25.91
2016-06-05T08:00:10.047Z,26.03
2016-06-05T08:01:10.020Z,26.2
2016-06-05T08:02:10.022Z,26.24
2016-06-05T08:03:10.024Z,26.32
2016-06-05T08:04:10.011Z,26.45
2016-06-05T08:05:09.999Z,26.48
2016-06-05T08:06:10.002Z,26.39
2016-06-05T08:07:10.004Z,26.38
2016-06-05T08:08:09.991Z,26.39
2016-06-05T08:09:09.978Z,26.41
2016-06-05T08:10:09.809Z,26.44
2016-06-05T08:11:09.952Z,26.42
2016-06-05T08:12:09.955Z,26.41
2016-06-05T08:13:09.802Z,26.51
2016-06-05T08:14:09.929Z,26.48
2016-06-05T08:15:09.931Z,26.57
2016-06-05T08:16:09.996Z,26.6
2016-06-05T08:17:09.937Z,26.75
2016-06-05T08:18:09.971Z,26.7
2016-06-05T08:19:09.911Z,26.85
2016-06-05T08:20:09.914Z,26.86
2016-06-05T08:21:09.901Z,27.03
2016-06-05T08:22:09.934Z,27.03
2016-06-05T08:23:09.876Z,26.86
2016-06-05T08:24:09.940Z,26.78
2016-06-05T08:25:09.865Z,26.74
2016-06-05T08:26:09.867Z,26.76
2016-06-05T08:27:09.855Z,26.74
2016-06-05T08:28:09.889Z,26.69
2016-06-05T08:29:09.876Z,26.66
2016-06-05T08:30:09.691Z,26.67
2016-06-05T08:31:09.834Z,26.71
2016-06-05T08:32:09.837Z,26.78
2016-06-05T08:33:09.825Z,26.79
2016-06-05T08:34:09.858Z,26.67
2016-06-05T08:35:09.814Z,26.74
2016-06-05T08:36:09.847Z,26.76
2016-06-05T08:37:09.803Z,26.79
2016-06-05T08:38:09.852Z,26.85
2016-06-05T08:39:09.808Z,26.94
2016-06-05T08:40:09.796Z,26.94
2016-06-05T08:41:09.627Z,27.01
2016-06-05T08:42:09.786Z,26.97
2016-06-05T08:43:10.101Z,26.93
2016-06-05T08:44:10.229Z,27.03
2016-06-05T08:45:09.747Z,27.06
2016-06-05T08:46:09.749Z,27.07
2016-06-05T08:47:09.752Z,27.03
2016-06-05T08:48:09.740Z,27.03
2016-06-05T08:49:09.726Z,27.18
2016-06-05T08:50:09.588Z,27.15
2016-06-05T08:51:09.560Z,27.01
2016-06-05T08:52:09.718Z,26.82
2016-06-05T08:53:09.581Z,26.84
2016-06-05T08:54:09.708Z,26.89
2016-06-05T08:55:09.695Z,26.86
2016-06-05T08:56:09.683Z,26.82
2016-06-05T08:57:09.686Z,26.7
2016-06-05T08:58:09.703Z,26.59
2016-06-05T08:59:09.691Z,26.75
2016-06-05T09:00:09.662Z,26.79
2016-06-05T09:01:09.665Z,26.82
2016-06-05T09:02:09.667Z,26.86
2016-06-05T09:03:09.655Z,26.85
2016-06-05T09:04:09.673Z,27.09
2016-06-05T09:05:09.676Z,27.22
2016-06-05T09:06:09.629Z,27.23
2016-06-05T09:07:09.616Z,27.34
2016-06-05T09:08:09.619Z,27.43
2016-06-05T09:09:09.481Z,27.53
2016-06-05T09:10:09.608Z,27.57
2016-06-05T09:11:09.627Z,27.55
2016-06-05T09:12:09.629Z,27.55
2016-06-05T09:13:10.244Z,27.59
2016-06-05T09:14:09.604Z,27.57
2016-06-05T09:15:09.606Z,27.68
2016-06-05T09:16:09.593Z,27.69
2016-06-05T09:17:09.565Z,27.74
2016-06-05T09:18:09.583Z,27.76
2016-06-05T09:19:09.570Z,27.76
2016-06-05T09:20:09.573Z,27.75
2016-06-05T09:21:09.576Z,27.66
2016-06-05T09:22:09.547Z,27.72
2016-06-05T09:23:09.549Z,27.74
2016-06-05T09:24:09.551Z,27.72
2016-06-05T09:25:09.539Z,27.78
2016-06-05T09:26:09.543Z,27.72
2016-06-05T09:27:09.545Z,27.71
2016-06-05T09:28:10.503Z,27.48
2016-06-05T09:29:09.237Z,27.44
2016-06-05T09:30:09.522Z,27.66
2016-06-05T09:31:09.509Z,27.68
2016-06-05T09:32:09.495Z,27.78
2016-06-05T09:33:09.342Z,27.98
2016-06-05T09:34:09.564Z,28.13
2016-06-05T09:35:09.489Z,28.15
2016-06-05T09:36:09.491Z,28.21
2016-06-05T09:37:09.477Z,28.19
2016-06-05T09:38:09.511Z,28.25
2016-06-05T09:39:09.452Z,28.37
2016-06-05T09:40:09.470Z,28.42
2016-06-05T09:41:09.457Z,28.49
2016-06-05T09:42:09.461Z,28.49
2016-06-05T09:43:09.807Z,28.6
2016-06-05T09:44:09.293Z,28.52
2016-06-05T09:45:09.421Z,28.61
2016-06-05T09:46:09.424Z,28.67
2016-06-05T09:47:09.286Z,28.47
2016-06-05T09:48:09.429Z,28.47
2016-06-05T09:49:09.416Z,28.4
2016-06-05T09:50:09.263Z,28.46
2016-06-05T09:51:09.422Z,28.52
2016-06-05T09:52:09.409Z,28.52
2016-06-05T09:53:09.396Z,28.52
2016-06-05T09:54:09.382Z,28.64
2016-06-05T09:55:09.401Z,28.72
2016-06-05T09:56:09.388Z,28.77
2016-06-05T09:57:09.376Z,28.8
2016-06-05T09:58:09.659Z,28.86
2016-06-05T09:59:09.365Z,28.86
2016-06-05T10:00:09.368Z,28.93
2016-06-05T10:01:09.387Z,28.92
2016-06-05T10:02:09.358Z,28.97
2016-06-05T10:03:09.361Z,28.8
2016-06-05T10:04:09.331Z,28.56
2016-06-05T10:05:09.350Z,28.34
2016-06-05T10:06:09.336Z,28.24
2016-06-05T10:07:09.340Z,28.35
2016-06-05T10:08:09.327Z,28.52
2016-06-05T10:09:09.377Z,28.61
2016-06-05T10:10:09.316Z,28.95
2016-06-05T10:11:09.319Z,29.06
2016-06-05T10:12:09.306Z,29.17
2016-06-05T10:13:09.528Z,29.12
2016-06-05T10:14:09.311Z,29.27
2016-06-05T10:15:09.313Z,29.27
2016-06-05T10:16:09.145Z,29.21
2016-06-05T10:17:09.319Z,29.31
2016-06-05T10:18:09.291Z,29.4
2016-06-05T10:19:09.356Z,29.49
2016-06-05T10:20:09.265Z,29.52
2016-06-05T10:21:09.299Z,29.49
2016-06-05T10:22:09.286Z,29.52
2016-06-05T10:23:09.273Z,29.64
2016-06-05T10:24:09.276Z,29.66
2016-06-05T10:25:09.279Z,29.83
2016-06-05T10:26:09.282Z,29.88
2016-06-05T10:27:09.268Z,30.2
2016-06-05T10:28:09.302Z,30.21
2016-06-05T10:29:09.431Z,30.16
2016-06-05T10:30:09.340Z,30.13
2016-06-05T10:31:09.279Z,30.1
2016-06-05T10:32:09.313Z,30.2
2016-06-05T10:33:09.253Z,30.26
2016-06-05T10:34:09.287Z,30.33
2016-06-05T10:35:09.259Z,30.36
2016-06-05T10:36:09.245Z,30.17
2016-06-05T10:37:09.264Z,30.31
2016-06-05T10:38:09.251Z,30.48
2016-06-05T10:39:09.253Z,30.59
2016-06-05T10:40:09.100Z,30.54
2016-06-05T10:41:09.244Z,30.52
2016-06-05T10:42:09.293Z,30.49
2016-06-05T10:43:09.124Z,30.48
2016-06-05T10:44:09.236Z,30.36
2016-06-05T10:45:09.223Z,30.43
2016-06-05T10:46:09.227Z,30.43
2016-06-05T10:47:09.244Z,30.35
2016-06-05T10:48:09.231Z,30.38
2016-06-05T10:49:09.218Z,30.36
2016-06-05T10:50:09.237Z,30.32
2016-06-05T10:51:09.208Z,30.29
2016-06-05T10:52:09.226Z,30.31
2016-06-05T10:53:09.213Z,30.36
2016-06-05T10:54:09.215Z,30.45
2016-06-05T10:55:09.204Z,30.59
2016-06-05T10:56:09.190Z,30.64
2016-06-05T10:57:09.209Z,30.49
2016-06-05T10:58:09.086Z,30.4
2016-06-05T10:59:09.214Z,30.31
2016-06-05T11:00:09.201Z,30.14
2016-06-05T11:01:09.203Z,30.08
2016-06-05T11:02:09.190Z,29.96
2016-06-05T11:03:09.240Z,30.05
2016-06-05T11:04:09.181Z,30.16
2016-06-05T11:05:09.199Z,30.21
2016-06-05T11:06:09.201Z,29.94
2016-06-05T11:07:09.157Z,30.11
2016-06-05T11:08:09.144Z,30.21
2016-06-05T11:09:09.194Z,30.08
2016-06-05T11:10:09.150Z,29.99
2016-06-05T11:11:09.169Z,30.13
2016-06-05T11:12:09.155Z,30.18
2016-06-05T11:13:09.189Z,30.25
2016-06-05T11:14:09.192Z,30.4
2016-06-05T11:15:09.226Z,30.58
2016-06-05T11:16:09.149Z,30.81
2016-06-05T11:17:09.184Z,30.88
2016-06-05T11:18:09.140Z,30.88
2016-06-05T11:19:09.158Z,30.73
2016-06-05T11:20:09.146Z,30.83
2016-06-05T11:21:09.132Z,30.78
2016-06-05T11:22:09.151Z,30.9
2016-06-05T11:23:09.121Z,30.98
2016-06-05T11:24:09.109Z,30.93
2016-06-05T11:25:09.127Z,30.78
2016-06-05T11:26:08.959Z,31.01
2016-06-05T11:27:09.118Z,30.98
2016-06-05T11:28:09.230Z,30.88
2016-06-05T11:29:09.592Z,30.81
2016-06-05T11:30:09.126Z,30.85
2016-06-05T11:31:09.097Z,31.04
2016-06-05T11:32:09.146Z,31.03
2016-06-05T11:33:09.118Z,31.19
2016-06-05T11:34:09.198Z,31.37
2016-06-05T11:35:09.092Z,31.2
2016-06-05T11:36:09.126Z,30.96
2016-06-05T11:37:09.097Z,30.81
2016-06-05T11:38:09.084Z,30.82
2016-06-05T11:39:09.072Z,30.78
2016-06-05T11:40:09.090Z,30.66
2016-06-05T11:41:09.077Z,30.81
2016-06-05T11:42:09.064Z,30.76
2016-06-05T11:43:08.925Z,30.49
2016-06-05T11:44:10.382Z,30.36
2016-06-05T11:45:09.072Z,30.43
2016-06-05T11:46:09.059Z,30.59
2016-06-05T11:47:09.077Z,30.81
2016-06-05T11:48:09.064Z,30.95
2016-06-05T11:49:09.067Z,31.18
2016-06-05T11:50:09.054Z,31.03
2016-06-05T11:51:09.057Z,30.82
2016-06-05T11:52:09.059Z,30.81
2016-06-05T11:53:09.046Z,31
2016-06-05T11:54:09.035Z,31.18
2016-06-05T11:55:09.037Z,31.3
2016-06-05T11:56:09.070Z,31.4
2016-06-05T11:57:08.885Z,31.22
2016-06-05T11:58:09.060Z,31.01
2016-06-05T11:59:10.375Z,30.78
2016-06-05T12:00:09.018Z,30.63
2016-06-05T12:01:08.912Z,30.55
2016-06-05T12:02:09.008Z,30.49
2016-06-05T12:03:09.104Z,30.51
2016-06-05T12:04:08.998Z,30.71
2016-06-05T12:05:09.016Z,30.9
2016-06-05T12:06:09.020Z,31.05
2016-06-05T12:07:09.023Z,31.19
2016-06-05T12:08:09.008Z,31.29
2016-06-05T12:09:09.012Z,31.52
2016-06-05T12:10:08.999Z,31.47
2016-06-05T12:11:08.861Z,31.51
2016-06-05T12:12:08.989Z,31.4
2016-06-05T12:13:08.867Z,31.12
2016-06-05T12:14:08.853Z,31.07
2016-06-05T12:15:08.980Z,31.15
2016-06-05T12:16:08.984Z,31.08
2016-06-05T12:17:08.971Z,31.14
2016-06-05T12:18:08.988Z,31.04
2016-06-05T12:19:08.992Z,30.92
2016-06-05T12:20:08.979Z,31.1
2016-06-05T12:21:08.966Z,31.26
2016-06-05T12:22:08.969Z,31.44
2016-06-05T12:23:08.955Z,31.66
2016-06-05T12:24:08.958Z,31.63
2016-06-05T12:25:08.960Z,31.67
2016-06-05T12:26:09.058Z,31.64
2016-06-05T12:27:08.965Z,31.56
2016-06-05T12:28:09.515Z,31.75
2016-06-05T12:29:09.221Z,31.79
2016-06-05T12:30:08.974Z,31.7
2016-06-05T12:31:08.961Z,31.66
2016-06-05T12:32:08.932Z,31.2
2016-06-05T12:33:08.935Z,30.98
2016-06-05T12:34:08.938Z,31.03
2016-06-05T12:35:08.926Z,31.08
2016-06-05T12:36:09.022Z,30.96
2016-06-05T12:37:08.945Z,30.81
2016-06-05T12:38:08.934Z,30.61
2016-06-05T12:39:08.936Z,30.67
2016-06-05T12:40:08.939Z,30.83
2016-06-05T12:41:08.925Z,30.76
2016-06-05T12:42:08.914Z,30.33
2016-06-05T12:43:08.947Z,30.43
2016-06-05T12:44:09.044Z,30.51
2016-06-05T12:45:08.906Z,30.77
2016-06-05T12:46:08.908Z,30.83
2016-06-05T12:47:08.911Z,31.11
2016-06-05T12:48:08.929Z,31.29
2016-06-05T12:49:08.932Z,31.48
2016-06-05T12:50:08.903Z,31.6
2016-06-05T12:51:08.890Z,31.71
2016-06-05T12:52:08.908Z,31.7
2016-06-05T12:53:08.896Z,31.85
2016-06-05T12:54:08.727Z,31.92
2016-06-05T12:55:08.885Z,31.89